Merrillville, Indiana
Current Conditions -  °F | °C
As of 1:55 AM on Thursday 23 Oct 2014 (Local Time) from KGYY Reporting Station
Clear Clear  
Wind Chill: 37°   Ceiling: Unl
Heat Index: 41°   Visibility: 7mi
Dew Point: 39°   Wind: 6mph
Humidity: 92%   Direction: 130°SE
Pressure: 30.26"   Gusts: NA
Location:  41.49°N, 87.34°W
Report Text: KGYY 230655Z AUTO 13005KT 7SM CLR 05/04 A3026 RMK AO2 T00490037
Loading
Personal Weather Stations






























Interactive Weather Map
Tropical Storm Tracking
New forecast layout! Learn more

10-Day Weather Forecast

Advertisements
Track Severe Weather on mobile